Dauntless Aviation
Greetings, Guest! To participate, [sign up for a free account] or [log in]
Airports Europe United Kingdom
EGLC
LCY

London City

London, UNITED KINGDOM

Airport Info
Edit

Location

Latitude / Longitude: 51°30'18"N / 0°3'12"E
  51°30.3'N / 0°3.21'E
  51.5050 / 0.0535

Nearby radio navigation aids

LCY CITY NDB on field.

Runway Information

Runway 10 /28

Dimensions: 4948 x 98 ft.
Surface: ASP
 
Runway 10
Runway 28
Latitude: 51.505528 51.504922
Longitude: 0.045753 0.064953
Elevation: 16 ft. 16 ft.
Runway true heading: 91.1 271.1
 

Instrument Procedures

  Control Zone and Control Area Chart
  Aircraft Parking/Docking Chart
  Aerodrome Chart

STARs (Standard Terminal Arrivals)

  STAR via SPEAR (Northwest)
  STAR via ALKIN (South)
  STAR via SPEAR (East)
  STAR via SPEAR (West)
  STAR via SPEAR (Alternate Holding at LOGAN and ALKIN)

IAPs (Instrument Approach Procedures)

  LOC/DME/NDB (L) Rwy 27 (Aircraft CAT A/B/C)
  Visual Approach Profile Rwy 27
  ILS (5.5°GP) /DME/NDB (L) Rwy 27 (Aircraft CAT A/B/C)
  Visual Approach Profile Rwy 09
  LOC/DME/NDB (L) Rwy 09
  ATC Surveillance Minimum Altitude Chart
  ILS (5.5°GP) /DME/NDB (L) Rwy 09 (Aircraft CAT A/B/C)

Departure Procedures

  SID DOVER/LYDD
  SID CLACTON
  SID SOUTHAMPTON
  SID BROOKMANS PARK/COMPTON
Satellite photo at:
Airport distance calculator
From:
Weather Reports

METAR

EGLC

EGLC 182150Z AUTO 24017G28KT 9999 SCT012/// BKN018/// 13/10 Q1010
EGWU
17.8nm W
EGWU 182150Z AUTO 24017KT 9999 // BKN013/// SCT022/// 13/10 Q1010
EGLL
18.9nm SW
EGLL 182150Z 23017KT 9999 SCT013 BKN020 13/11 Q1011 BECMG BKN013
EGSS
23.5nm N
EGSS 182150Z 24016KT 9999 BKN010 OVC015 12/10 Q1009
EGKK
23.8nm S
EGKK 182150Z 23016KT 8000 BKN008 12/11 Q1012
EGMC
24.4nm NE
EGMC 182150Z 23018KT 9999 BKN017 OVC020 12/10 Q1010

TAF

EGLC
TAF EGLC 181657Z 1818/1822 24015KT 9999 BKN016 BECMG 1818/1821 BKN012 TEMPO 1818/1822 24018G28KT 6000 RA BKN008
EGWU
17.8nm W
TAF EGWU 181700Z 1818/1912 25015G25KT 9999 BKN012 TEMPO 1822/1906 6000 RA BKN006 BECMG 1905/1908 30010KT SCT025
EGLL
18.9nm SW
TAF EGLL 181700Z 1818/1924 24015G28KT 9999 BKN014 TEMPO 1818/1906 7000 -RA PROB40 TEMPO 1818/1901 4500 RADZ RA BKN008 BECMG 1823/1902 24014KT BECMG 1904/1907 31010KT SCT025
EGSS
23.5nm N
TAF EGSS 181657Z 1818/1924 23017KT 9999 BKN016 BECMG 1818/1821 BKN012 TEMPO 1818/1904 24020G30KT 6000 RA BKN008 BECMG 1903/1906 29010KT PROB40 TEMPO 1904/1907 27015G25KT 4000 RADZ BKN008 BECMG 1905/1908 FEW030
EGKK
23.8nm S
TAF EGKK 181700Z 1818/1924 23014KT 6000 -RADZ BKN007 TEMPO 1818/1905 23017G27KT 9999 NSW SCT007 BKN010 PROB40 TEMPO 1818/1906 4000 RADZ BECMG 1905/1908 30010KT 9999 NSW FEW030
EGMC
24.4nm NE
TAF EGMC 182002Z 1821/1906 23017KT 9999 BKN016 TEMPO 1821/1906 24020G30KT 6000 RA BKN008
Safelog

 

Dauntless Aviation

© 2007-2014 Dauntless Aviation, all rights reserved
Information provided via PilotNav comes from a variety of official and unofficial data sources. As errors are possible, do not use PilotNav for primary flight planning purposes. Verify any information that you receive via PilotNav with current and canonical charts and other official documents. The material in this database is subject to database copyrights held by Dauntless Aviation and may not be copied without the express permission of Dauntless Aviation - licenses for use of part of all of this data are available for purchase; enquire via the Dauntless Aviation helpdesk. A number of mechanisms and markers exist in the database to protect against and identify infringement / copyright. Automated queries against this website are stictly prohibited, and all activity is logged and analyzed.